Time;durP1;ratioP1;P1;durP2;ratioP2;P2;SDS_P1;SDS_P2;PMS_P1;PMS_P2;Temp;Humidity;BMP_temperature;BMP_pressure;BME280_temperature;BME280_humidity;BME280_pressure;Samples;Min_cycle;Max_cycle;Signal;HPM_P1;HPM_P2
2022/05/18 00:00:54;;;;;;;;;;;17.40;99.90;;;;;;10249573;28;85057;-56
2022/05/18 00:05:55;;;;;;;;;;;17.40;99.90;;;;;;10250548;28;84958;-55
2022/05/18 00:10:55;;;;;;;;;;;17.30;99.90;;;;;;10251822;28;84074;-54
2022/05/18 00:15:56;;;;;;;;;;;17.20;99.90;;;;;;10250232;28;84942;-49
2022/05/18 00:20:59;;;;;;;;;;;17.10;99.90;;;;;;10249040;28;85534;-50
2022/05/18 00:25:59;;;;;;;;;;;17.10;99.90;;;;;;10232378;28;84618;-51
2022/05/18 00:31:00;;;;;;;;;;;17.10;99.90;;;;;;10230891;28;85949;-52
2022/05/18 00:36:01;;;;;;;;;;;17.10;99.90;;;;;;10248904;28;85676;-54
2022/05/18 00:41:01;;;;;;;;;;;17.00;99.90;;;;;;10256621;28;84122;-50
2022/05/18 00:46:04;;;;;;;;;;;16.90;99.90;;;;;;10263396;28;84183;-50
2022/05/18 00:51:09;;;;;;;;;;;17.00;99.90;;;;;;10248064;28;84925;-50
2022/05/18 00:56:13;;;;;;;;;;;16.90;99.90;;;;;;10247594;28;84988;-52
2022/05/18 01:01:14;;;;;;;;;;;16.90;99.90;;;;;;10249274;28;84174;-51
2022/05/18 01:06:23;;;;;;;;;;;16.80;99.90;;;;;;10248054;28;84892;-51
2022/05/18 01:11:24;;;;;;;;;;;16.80;99.90;;;;;;10248557;28;85141;-50
2022/05/18 01:16:26;;;;;;;;;;;16.80;99.90;;;;;;10248282;28;85038;-53
2022/05/18 01:21:34;;;;;;;;;;;16.70;99.90;;;;;;10247894;28;84390;-50
2022/05/18 01:26:40;;;;;;;;;;;16.70;99.90;;;;;;10246805;28;84117;-52
2022/05/18 01:31:43;;;;;;;;;;;16.70;99.90;;;;;;10246381;28;84234;-52
2022/05/18 01:36:44;;;;;;;;;;;16.60;99.90;;;;;;10251778;28;84231;-55
2022/05/18 01:41:54;;;;;;;;;;;16.60;99.90;;;;;;10287016;28;84875;-53
2022/05/18 01:46:55;;;;;;;;;;;16.60;99.90;;;;;;10284942;28;84913;-50
2022/05/18 01:51:56;;;;;;;;;;;16.60;99.90;;;;;;10286170;28;84133;-51
2022/05/18 01:56:57;;;;;;;;;;;16.50;99.90;;;;;;10285647;28;84133;-56
2022/05/18 02:01:58;;;;;;;;;;;16.50;99.90;;;;;;10258495;28;84833;-54
2022/05/18 02:06:59;;;;;;;;;;;16.50;99.90;;;;;;10246955;28;84287;-51
2022/05/18 02:12:00;;;;;;;;;;;16.40;99.90;;;;;;10229106;28;86003;-55
2022/05/18 02:17:01;;;;;;;;;;;16.40;99.90;;;;;;10263942;28;84148;-50
2022/05/18 02:22:01;;;;;;;;;;;16.40;99.90;;;;;;10285882;28;84187;-51
2022/05/18 02:27:02;;;;;;;;;;;16.50;99.90;;;;;;10286037;28;84100;-52
2022/05/18 02:32:03;;;;;;;;;;;16.50;99.90;;;;;;10281541;28;84783;-52
2022/05/18 02:37:03;;;;;;;;;;;16.50;99.90;;;;;;10245227;28;84852;-50
2022/05/18 02:42:04;;;;;;;;;;;16.60;99.90;;;;;;10239123;28;84982;-51
2022/05/18 02:47:04;;;;;;;;;;;16.50;99.90;;;;;;10276369;28;85011;-51
2022/05/18 02:52:05;;;;;;;;;;;16.50;99.90;;;;;;10285341;28;84181;-53
2022/05/18 02:57:08;;;;;;;;;;;16.50;99.90;;;;;;10284372;28;84414;-50
2022/05/18 03:02:08;;;;;;;;;;;16.40;99.90;;;;;;10267363;28;84118;-52
2022/05/18 03:07:09;;;;;;;;;;;16.30;99.90;;;;;;10244158;28;84894;-49
2022/05/18 03:12:11;;;;;;;;;;;16.20;99.90;;;;;;10244128;28;84691;-49
2022/05/18 03:17:13;;;;;;;;;;;16.10;99.90;;;;;;10253533;28;84246;-52
2022/05/18 03:27:32;;;;;;;;;;;16.00;99.90;;;;;;10239864;28;84941;-47
2022/05/18 03:32:33;;;;;;;;;;;16.00;99.90;;;;;;10242492;28;85454;-52
2022/05/18 03:37:33;;;;;;;;;;;15.90;99.90;;;;;;10221396;28;85804;-49
2022/05/18 03:42:34;;;;;;;;;;;15.90;99.90;;;;;;10243187;28;84923;-48
2022/05/18 03:47:34;;;;;;;;;;;15.80;99.90;;;;;;10242949;28;84182;-52
2022/05/18 03:52:35;;;;;;;;;;;15.80;99.90;;;;;;10279376;28;84088;-50
2022/05/18 03:57:35;;;;;;;;;;;15.80;99.90;;;;;;10282839;28;84827;-48
2022/05/18 04:02:36;;;;;;;;;;;15.80;99.90;;;;;;10279943;28;89112;-48
2022/05/18 04:07:36;;;;;;;;;;;15.90;99.90;;;;;;10223866;28;85565;-49
2022/05/18 04:12:37;;;;;;;;;;;15.90;99.90;;;;;;10242388;28;85592;-49
2022/05/18 04:17:38;;;;;;;;;;;15.90;99.90;;;;;;10252094;28;84936;-51
2022/05/18 04:22:39;;;;;;;;;;;16.00;99.90;;;;;;10261493;28;84842;-51
2022/05/18 04:27:39;;;;;;;;;;;15.90;99.90;;;;;;10230169;28;86978;-49
2022/05/18 04:32:40;;;;;;;;;;;16.00;99.90;;;;;;10250223;28;84095;-51
2022/05/18 04:37:41;;;;;;;;;;;16.00;99.90;;;;;;10247613;28;84129;-49
2022/05/18 04:42:41;;;;;;;;;;;16.10;99.90;;;;;;10247945;28;84102;-50
2022/05/18 04:47:42;;;;;;;;;;;16.10;99.90;;;;;;10247611;28;85081;-52
2022/05/18 04:52:42;;;;;;;;;;;16.30;99.90;;;;;;10249390;28;84104;-50
2022/05/18 04:57:43;;;;;;;;;;;16.30;99.90;;;;;;10246386;28;84087;-48
2022/05/18 05:02:43;;;;;;;;;;;16.50;99.90;;;;;;10249187;28;85582;-52
2022/05/18 05:07:44;;;;;;;;;;;16.60;99.90;;;;;;10247320;28;84068;-54
2022/05/18 05:12:45;;;;;;;;;;;16.70;99.90;;;;;;10213213;28;86505;-52
2022/05/18 05:17:46;;;;;;;;;;;16.80;99.90;;;;;;10263079;28;84884;-53
2022/05/18 05:22:46;;;;;;;;;;;17.00;99.90;;;;;;10265979;28;84895;-52
2022/05/18 05:27:47;;;;;;;;;;;17.10;99.90;;;;;;10255101;28;84970;-51
2022/05/18 05:32:47;;;;;;;;;;;17.30;99.90;;;;;;10228911;28;85041;-50
2022/05/18 05:37:48;;;;;;;;;;;17.50;99.90;;;;;;10233917;28;85975;-51
2022/05/18 05:42:48;;;;;;;;;;;17.70;99.90;;;;;;10250872;28;85910;-50
2022/05/18 05:47:49;;;;;;;;;;;17.90;99.90;;;;;;10237103;28;84687;-51
2022/05/18 05:52:49;;;;;;;;;;;18.30;99.90;;;;;;10242992;28;85032;-50
2022/05/18 05:57:54;;;;;;;;;;;18.40;99.90;;;;;;10261217;22;86841;-55
2022/05/18 06:02:54;;;;;;;;;;;18.60;99.90;;;;;;10244435;28;85060;-56
2022/05/18 06:07:55;;;;;;;;;;;18.70;70.10;;;;;;10241242;28;84295;-51
2022/05/18 06:12:55;;;;;;;;;;;18.90;31.80;;;;;;10236259;28;84965;-59
2022/05/18 06:17:56;;;;;;;;;;;19.10;1.00;;;;;;10243686;28;84051;-59
2022/05/18 06:23:02;;;;;;;;;;;19.30;1.00;;;;;;10247696;28;84945;-61
2022/05/18 06:28:03;;;;;;;;;;;19.50;1.00;;;;;;10245819;28;84883;-55
2022/05/18 06:33:04;;;;;;;;;;;19.70;1.00;;;;;;10246670;28;84921;-60
2022/05/18 06:38:08;;;;;;;;;;;20.00;1.00;;;;;;10246156;28;84114;-61
2022/05/18 06:43:09;;;;;;;;;;;20.30;1.00;;;;;;10245500;28;84944;-61
2022/05/18 06:48:09;;;;;;;;;;;20.70;1.00;;;;;;10229223;28;86086;-61
2022/05/18 06:53:10;;;;;;;;;;;20.90;1.00;;;;;;10246410;28;84166;-59
2022/05/18 06:58:10;;;;;;;;;;;21.30;1.00;;;;;;10228295;28;86060;-58
2022/05/18 07:03:11;;;;;;;;;;;21.60;1.00;;;;;;10246639;28;84888;-57
2022/05/18 07:08:12;;;;;;;;;;;22.00;1.00;;;;;;10246125;28;84159;-59
2022/05/18 07:13:16;;;;;;;;;;;22.50;1.00;;;;;;10229327;28;84266;-56
2022/05/18 07:18:17;;;;;;;;;;;23.00;99.90;;;;;;10246157;28;84252;-58
2022/05/18 07:23:18;;;;;;;;;;;23.60;99.90;;;;;;10245783;28;84199;-59
2022/05/18 07:28:18;;;;;;;;;;;24.50;1.00;;;;;;10246049;28;84199;-59
2022/05/18 07:33:22;;;;;;;;;;;24.90;1.00;;;;;;10246596;28;84915;-59
2022/05/18 07:38:24;;;;;;;;;;;25.40;1.00;;;;;;10245408;28;84045;-60
2022/05/18 07:43:25;;;;;;;;;;;25.90;1.00;;;;;;10245775;28;85041;-61
2022/05/18 07:48:26;;;;;;;;;;;26.20;1.00;;;;;;10227660;28;85700;-60
2022/05/18 07:53:26;;;;;;;;;;;26.90;1.00;;;;;;10248357;28;84214;-61
2022/05/18 07:58:27;;;;;;;;;;;27.30;1.00;;;;;;10250531;28;84282;-60
2022/05/18 08:03:27;;;;;;;;;;;27.50;1.00;;;;;;10252085;28;84310;-59
2022/05/18 08:08:28;;;;;;;;;;;28.40;1.00;;;;;;10252645;28;84886;-57
2022/05/18 08:18:49;;;;;;;;;;;29.40;1.00;;;;;;10252489;28;84154;-58
2022/05/18 08:23:50;;;;;;;;;;;29.30;99.90;;;;;;10252016;28;85191;-54
2022/05/18 08:28:50;;;;;;;;;;;29.90;1.00;;;;;;10252490;28;85230;-59
2022/05/18 08:33:52;;;;;;;;;;;30.50;1.00;;;;;;10251988;28;84993;-60
2022/05/18 08:38:54;;;;;;;;;;;30.90;99.90;;;;;;10251379;28;84147;-57
2022/05/18 08:43:56;;;;;;;;;;;31.20;99.90;;;;;;10252956;28;84030;-60
2022/05/18 08:49:16;;;;;;;;;;;31.00;1.00;;;;;;10254164;28;84898;-59
2022/05/18 08:54:16;;;;;;;;;;;31.50;1.00;;;;;;10252795;28;84140;-59
2022/05/18 08:59:20;;;;;;;;;;;32.00;1.00;;;;;;10234033;28;84117;-61
2022/05/18 09:04:30;;;;;;;;;;;32.90;1.00;;;;;;10234323;28;85212;-61
2022/05/18 09:14:53;;;;;;;;;;;33.40;99.90;;;;;;10253513;28;84422;-53
2022/05/18 09:19:54;;;;;;;;;;;33.60;99.90;;;;;;10258385;28;84440;-55
2022/05/18 09:25:04;;;;;;;;;;;33.70;99.90;;;;;;10241727;28;86935;-56
2022/05/18 09:30:10;;;;;;;;;;;34.50;99.90;;;;;;10258579;28;84952;-56
2022/05/18 09:35:29;;;;;;;;;;;34.90;1.00;;;;;;10254163;28;84478;-56
2022/05/18 09:40:32;;;;;;;;;;;35.30;1.00;;;;;;10251800;28;84218;-56
2022/05/18 09:45:34;;;;;;;;;;;35.20;1.00;;;;;;10251101;28;84908;-58
2022/05/18 09:50:36;;;;;;;;;;;35.40;1.00;;;;;;10249022;28;84864;-54
2022/05/18 09:55:37;;;;;;;;;;;35.60;1.00;;;;;;10249372;28;85328;-62
2022/05/18 10:00:38;;;;;;;;;;;34.80;1.00;;;;;;10247401;28;84297;-61
2022/05/18 10:11:00;;;;;;;;;;;35.20;1.00;;;;;;10248222;28;84170;-60
2022/05/18 10:16:03;;;;;;;;;;;36.00;1.00;;;;;;10246998;28;85163;-59
2022/05/18 10:21:13;;;;;;;;;;;36.40;1.00;;;;;;10247207;28;84163;-62
2022/05/18 10:26:25;;;;;;;;;;;36.40;1.00;;;;;;10227586;28;84681;-54
2022/05/18 10:31:27;;;;;;;;;;;36.20;1.00;;;;;;10245747;28;84054;-53
2022/05/18 10:36:29;;;;;;;;;;;36.40;1.00;;;;;;10245881;28;84934;-56
2022/05/18 10:41:38;;;;;;;;;;;37.30;1.00;;;;;;10227561;28;84287;-55
2022/05/18 10:46:41;;;;;;;;;;;36.80;1.00;;;;;;10246804;28;85225;-55
2022/05/18 10:51:43;;;;;;;;;;;36.30;1.00;;;;;;10245916;28;84174;-54
2022/05/18 10:56:44;;;;;;;;;;;36.90;1.00;;;;;;10245998;28;84921;-54
2022/05/18 11:01:57;;;;;;;;;;;37.00;1.00;;;;;;10246389;28;84208;-53
2022/05/18 11:06:57;;;;;;;;;;;36.80;1.00;;;;;;10244418;28;84165;-50
2022/05/18 11:11:58;;;;;;;;;;;36.50;1.00;;;;;;10244763;28;84807;-53
2022/05/18 11:17:01;;;;;;;;;;;36.20;1.00;;;;;;10245124;28;85142;-55
2022/05/18 11:22:02;;;;;;;;;;;36.80;1.00;;;;;;10243879;28;84081;-55
2022/05/18 11:27:21;;;;;;;;;;;36.60;1.00;;;;;;10244967;28;84982;-54
2022/05/18 11:32:35;;;;;;;;;;;36.80;1.00;;;;;;10233368;28;84201;-60
2022/05/18 11:37:45;;;;;;;;;;;36.70;1.00;;;;;;10249917;28;84452;-58
2022/05/18 11:42:55;;;;;;;;;;;37.30;1.00;;;;;;10251457;28;85018;-57
2022/05/18 11:48:02;;;;;;;;;;;36.80;1.00;;;;;;10249784;28;84302;-56
2022/05/18 11:53:13;;;;;;;;;;;37.50;1.00;;;;;;10250967;28;84840;-56
2022/05/18 11:58:47;;;;;;;;;;;37.60;1.00;;;;;;10262911;22;84866;-51
2022/05/18 12:04:10;;;;;;;;;;;38.00;1.00;;;;;;10230829;28;86691;-54
2022/05/18 12:09:29;;;;;;;;;;;38.20;1.00;;;;;;10231145;28;85748;-59
2022/05/18 12:14:48;;;;;;;;;;;37.30;1.00;;;;;;10249227;28;84286;-56
2022/05/18 12:19:56;;;;;;;;;;;37.10;1.00;;;;;;10249134;28;86073;-55
2022/05/18 12:24:57;;;;;;;;;;;36.70;1.00;;;;;;10250124;28;84786;-57
2022/05/18 12:29:59;;;;;;;;;;;37.50;1.00;;;;;;10249757;28;84114;-51
2022/05/18 12:35:08;;;;;;;;;;;38.70;1.00;;;;;;10237194;28;84744;-57
2022/05/18 12:40:15;;;;;;;;;;;37.90;1.00;;;;;;10235420;28;84146;-56
2022/05/18 12:45:28;;;;;;;;;;;37.30;1.00;;;;;;10219443;28;84816;-54
2022/05/18 12:50:33;;;;;;;;;;;38.40;1.00;;;;;;10224379;28;84229;-57
2022/05/18 12:55:35;;;;;;;;;;;38.10;1.00;;;;;;10246316;28;84861;-58
2022/05/18 13:00:39;;;;;;;;;;;38.00;1.00;;;;;;10220321;28;84045;-61
2022/05/18 13:05:40;;;;;;;;;;;36.70;1.00;;;;;;10211120;28;86789;-58
2022/05/18 13:11:00;;;;;;;;;;;37.10;1.00;;;;;;10236098;28;84918;-54
2022/05/18 13:16:02;;;;;;;;;;;37.70;1.00;;;;;;10244676;28;84355;-58
2022/05/18 13:21:06;;;;;;;;;;;37.40;1.00;;;;;;10228558;28;85846;-58
2022/05/18 13:26:17;;;;;;;;;;;36.40;1.00;;;;;;10247280;28;85395;-60
2022/05/18 13:31:18;;;;;;;;;;;35.80;1.00;;;;;;10232174;28;84791;-52
2022/05/18 13:36:35;;;;;;;;;;;36.20;1.00;;;;;;10228145;28;84940;-55
2022/05/18 13:41:36;;;;;;;;;;;35.50;1.00;;;;;;10246210;28;84240;-52
2022/05/18 13:46:38;;;;;;;;;;;36.00;1.00;;;;;;10247635;28;84283;-56
2022/05/18 13:51:40;;;;;;;;;;;36.10;1.00;;;;;;10245868;28;84193;-59
2022/05/18 13:56:44;;;;;;;;;;;36.20;1.00;;;;;;10246950;28;84145;-52
2022/05/18 14:01:47;;;;;;;;;;;36.30;1.00;;;;;;10247284;28;84228;-57
2022/05/18 14:06:48;;;;;;;;;;;35.70;1.00;;;;;;10213789;28;86838;-61
2022/05/18 14:11:54;;;;;;;;;;;35.20;1.00;;;;;;10246580;28;85356;-55
2022/05/18 14:16:57;;;;;;;;;;;35.00;1.00;;;;;;10245957;28;85364;-57
2022/05/18 14:21:58;;;;;;;;;;;34.90;1.00;;;;;;10246222;28;85136;-52
2022/05/18 14:27:05;;;;;;;;;;;33.80;1.00;;;;;;10244874;28;84836;-55
2022/05/18 14:32:08;;;;;;;;;;;33.80;1.00;;;;;;10232019;28;85018;-58
2022/05/18 14:37:11;;;;;;;;;;;33.00;1.00;;;;;;10241625;28;86951;-57
2022/05/18 14:42:11;;;;;;;;;;;32.00;1.00;;;;;;10236097;28;84981;-52
2022/05/18 14:47:15;;;;;;;;;;;31.70;1.00;;;;;;10244787;28;84166;-54
2022/05/18 14:52:26;;;;;;;;;;;31.80;1.00;;;;;;10240314;28;84931;-53
2022/05/18 14:57:29;;;;;;;;;;;32.10;1.00;;;;;;10238025;28;84802;-53
2022/05/18 15:02:31;;;;;;;;;;;32.10;1.00;;;;;;10224794;28;84930;-52
2022/05/18 15:07:36;;;;;;;;;;;31.60;1.00;;;;;;10230006;28;86217;-54
2022/05/18 15:12:40;;;;;;;;;;;31.60;1.00;;;;;;10242954;28;84607;-55
2022/05/18 15:17:43;;;;;;;;;;;31.10;1.00;;;;;;10242312;28;84425;-51
2022/05/18 15:22:46;;;;;;;;;;;31.10;99.90;;;;;;10230453;28;84317;-54
2022/05/18 15:27:47;;;;;;;;;;;30.90;1.00;;;;;;10228645;28;84835;-52
2022/05/18 15:32:47;;;;;;;;;;;30.90;1.00;;;;;;10239197;28;87551;-54
2022/05/18 15:37:49;;;;;;;;;;;30.90;1.00;;;;;;10227314;28;86017;-56
2022/05/18 15:42:50;;;;;;;;;;;30.80;1.00;;;;;;10243898;28;84543;-57
2022/05/18 15:47:55;;;;;;;;;;;30.90;1.00;;;;;;10227591;28;85392;-56
2022/05/18 15:52:56;;;;;;;;;;;31.20;1.00;;;;;;10225633;28;84168;-56
2022/05/18 15:57:58;;;;;;;;;;;30.90;1.00;;;;;;10241669;28;84789;-55
2022/05/18 16:02:58;;;;;;;;;;;31.00;1.00;;;;;;10243618;28;84416;-52
2022/05/18 16:07:59;;;;;;;;;;;30.60;1.00;;;;;;10244377;28;84157;-55
2022/05/18 16:13:00;;;;;;;;;;;30.30;1.00;;;;;;10244986;28;84149;-57
2022/05/18 16:18:01;;;;;;;;;;;30.20;1.00;;;;;;10251498;28;84944;-53
2022/05/18 16:23:02;;;;;;;;;;;30.00;1.00;;;;;;10249786;28;84922;-55
2022/05/18 16:28:03;;;;;;;;;;;30.30;1.00;;;;;;10231752;28;84875;-57
2022/05/18 16:33:04;;;;;;;;;;;30.60;1.00;;;;;;10223278;28;85931;-50
2022/05/18 16:38:04;;;;;;;;;;;30.60;1.00;;;;;;10247601;28;84847;-54
2022/05/18 16:43:05;;;;;;;;;;;30.30;1.00;;;;;;10225386;28;85389;-53
2022/05/18 16:48:06;;;;;;;;;;;30.10;1.00;;;;;;10291103;28;84982;-47
2022/05/18 16:53:06;;;;;;;;;;;29.90;1.00;;;;;;10224704;28;84169;-50
2022/05/18 16:58:07;;;;;;;;;;;29.80;1.00;;;;;;10264110;28;83998;-52
2022/05/18 17:03:07;;;;;;;;;;;29.80;1.00;;;;;;10265347;28;84241;-52
2022/05/18 17:13:27;;;;;;;;;;;29.60;1.00;;;;;;10222442;28;84866;-51
2022/05/18 17:18:28;;;;;;;;;;;29.40;1.00;;;;;;10219233;28;84222;-52
2022/05/18 17:23:30;;;;;;;;;;;29.20;1.00;;;;;;10228603;28;85599;-52
2022/05/18 17:28:33;;;;;;;;;;;29.10;1.00;;;;;;10213125;28;84949;-50
2022/05/18 17:33:34;;;;;;;;;;;29.00;1.00;;;;;;10213680;28;84848;-54
2022/05/18 17:38:34;;;;;;;;;;;28.90;1.00;;;;;;10230600;28;84846;-51
2022/05/18 17:43:36;;;;;;;;;;;28.90;1.00;;;;;;10226461;28;85080;-50
2022/05/18 17:48:37;;;;;;;;;;;28.80;1.00;;;;;;10223097;28;84439;-50
2022/05/18 17:53:38;;;;;;;;;;;28.80;1.00;;;;;;10231376;28;84234;-50
2022/05/18 17:58:42;;;;;;;;;;;28.70;1.00;;;;;;10247055;22;84456;-52
2022/05/18 18:03:44;;;;;;;;;;;28.60;1.00;;;;;;10280690;28;84198;-52
2022/05/18 18:08:45;;;;;;;;;;;28.50;1.00;;;;;;10277914;28;84501;-53
2022/05/18 18:13:46;;;;;;;;;;;28.30;1.00;;;;;;10206830;28;84946;-54
2022/05/18 18:18:47;;;;;;;;;;;28.20;1.00;;;;;;10219942;28;84946;-55
2022/05/18 18:23:47;;;;;;;;;;;28.00;1.00;;;;;;10246418;28;84314;-53
2022/05/18 18:28:48;;;;;;;;;;;27.80;1.00;;;;;;10236777;28;85166;-54
2022/05/18 18:33:49;;;;;;;;;;;27.70;1.00;;;;;;10241403;28;84460;-53
2022/05/18 18:38:51;;;;;;;;;;;27.60;1.00;;;;;;10210523;28;84249;-50
2022/05/18 18:43:52;;;;;;;;;;;27.50;1.00;;;;;;10207419;28;84040;-53
2022/05/18 18:48:52;;;;;;;;;;;27.30;99.90;;;;;;10206883;28;84010;-51
2022/05/18 18:59:14;;;;;;;;;;;27.10;1.00;;;;;;10241714;28;85077;-52
2022/05/18 19:04:14;;;;;;;;;;;27.00;1.00;;;;;;10229978;28;85020;-53
2022/05/18 19:09:15;;;;;;;;;;;26.80;99.90;;;;;;10238332;28;84308;-52
2022/05/18 19:14:17;;;;;;;;;;;26.60;1.00;;;;;;10242881;28;84991;-46
2022/05/18 19:19:17;;;;;;;;;;;26.40;1.00;;;;;;10256507;28;85404;-52
2022/05/18 19:24:19;;;;;;;;;;;26.30;1.00;;;;;;10243231;28;84248;-50
2022/05/18 19:29:21;;;;;;;;;;;26.10;1.00;;;;;;10258055;28;85037;-51
2022/05/18 19:34:22;;;;;;;;;;;26.00;99.90;;;;;;10243021;28;84334;-51
2022/05/18 19:39:23;;;;;;;;;;;25.80;1.00;;;;;;10223671;28;84196;-50
2022/05/18 19:44:23;;;;;;;;;;;25.70;99.90;;;;;;10230683;28;84971;-47
2022/05/18 19:49:24;;;;;;;;;;;25.50;1.00;;;;;;10221126;28;84244;-48
2022/05/18 19:54:27;;;;;;;;;;;25.50;1.00;;;;;;10228073;28;85296;-51
2022/05/18 19:59:28;;;;;;;;;;;25.40;99.90;;;;;;10236585;28;84795;-47
2022/05/18 20:04:29;;;;;;;;;;;25.30;1.00;;;;;;10239943;28;84320;-50
2022/05/18 20:09:30;;;;;;;;;;;25.20;1.00;;;;;;10214763;28;84128;-49
2022/05/18 20:14:31;;;;;;;;;;;25.10;86.70;;;;;;10197924;28;84208;-54
2022/05/18 20:19:31;;;;;;;;;;;25.00;99.90;;;;;;10237643;28;84148;-51
2022/05/18 20:24:32;;;;;;;;;;;24.90;1.00;;;;;;10258303;28;84820;-48
2022/05/18 20:29:32;;;;;;;;;;;24.90;99.90;;;;;;10221791;28;85099;-50
2022/05/18 20:34:33;;;;;;;;;;;25.10;1.00;;;;;;10250652;28;84902;-50
2022/05/18 20:39:36;;;;;;;;;;;25.20;1.00;;;;;;10249262;28;84829;-51
2022/05/18 20:44:36;;;;;;;;;;;25.10;1.00;;;;;;10257519;28;84308;-51
2022/05/18 20:49:43;;;;;;;;;;;24.90;99.90;;;;;;10233942;28;84644;-49
2022/05/18 20:54:43;;;;;;;;;;;24.90;1.00;;;;;;10249929;28;84862;-48
2022/05/18 20:59:45;;;;;;;;;;;24.70;1.00;;;;;;10247755;28;85058;-50
2022/05/18 21:04:46;;;;;;;;;;;24.60;99.90;;;;;;10250883;28;85281;-48
2022/05/18 21:09:52;;;;;;;;;;;24.50;99.90;;;;;;10249994;28;84447;-53
2022/05/18 21:14:53;;;;;;;;;;;24.40;99.90;;;;;;10251107;28;84060;-50
2022/05/18 21:19:53;;;;;;;;;;;24.30;99.90;;;;;;10266280;28;85055;-53
2022/05/18 21:24:54;;;;;;;;;;;24.10;1.00;;;;;;10236440;28;84026;-50
2022/05/18 21:29:54;;;;;;;;;;;24.00;1.00;;;;;;10220881;28;84933;-50
2022/05/18 21:34:55;;;;;;;;;;;23.90;1.00;;;;;;10208856;28;84117;-49
2022/05/18 21:39:56;;;;;;;;;;;23.80;1.00;;;;;;10228694;28;87023;-51
2022/05/18 21:44:56;;;;;;;;;;;23.80;1.00;;;;;;10249137;28;84933;-53
2022/05/18 21:49:57;;;;;;;;;;;23.70;1.00;;;;;;10248284;28;84160;-52
2022/05/18 21:54:57;;;;;;;;;;;23.60;1.00;;;;;;10247036;28;84883;-52
2022/05/18 21:59:58;;;;;;;;;;;23.40;1.00;;;;;;10247162;28;84112;-49
2022/05/18 22:05:00;;;;;;;;;;;23.40;1.00;;;;;;10248198;28;84088;-49
2022/05/18 22:10:02;;;;;;;;;;;23.30;1.00;;;;;;10231416;28;84810;-49
2022/05/18 22:15:03;;;;;;;;;;;23.20;1.00;;;;;;10207130;28;84251;-51
2022/05/18 22:20:04;;;;;;;;;;;23.10;1.00;;;;;;10211372;28;84393;-51
2022/05/18 22:25:04;;;;;;;;;;;23.00;1.00;;;;;;10247347;28;85274;-52
2022/05/18 22:30:10;;;;;;;;;;;23.00;1.00;;;;;;10247291;28;84040;-48
2022/05/18 22:35:11;;;;;;;;;;;23.00;1.00;;;;;;10247140;28;84153;-50
2022/05/18 22:40:12;;;;;;;;;;;22.90;1.00;;;;;;10246578;28;84018;-48
2022/05/18 22:45:15;;;;;;;;;;;22.70;1.00;;;;;;10245402;28;85228;-48
2022/05/18 22:50:19;;;;;;;;;;;22.60;1.00;;;;;;10246786;28;84127;-50
2022/05/18 22:55:20;;;;;;;;;;;22.50;1.00;;;;;;10247383;28;84087;-52
2022/05/18 23:00:21;;;;;;;;;;;22.50;1.00;;;;;;10244566;28;84097;-52
2022/05/18 23:05:21;;;;;;;;;;;22.30;1.00;;;;;;10247154;28;84075;-50
2022/05/18 23:10:22;;;;;;;;;;;22.30;1.00;;;;;;10245161;28;84022;-48
2022/05/18 23:15:22;;;;;;;;;;;22.20;1.00;;;;;;10238023;28;84172;-47
2022/05/18 23:20:24;;;;;;;;;;;22.10;1.00;;;;;;10205262;28;84363;-47
2022/05/18 23:25:26;;;;;;;;;;;22.00;1.00;;;;;;10243697;28;85237;-49
2022/05/18 23:30:26;;;;;;;;;;;21.90;1.00;;;;;;10245356;28;84907;-47
2022/05/18 23:35:32;;;;;;;;;;;21.70;1.00;;;;;;10243068;28;84314;-48
2022/05/18 23:40:32;;;;;;;;;;;21.40;1.00;;;;;;10204894;28;85000;-48
2022/05/18 23:45:34;;;;;;;;;;;21.30;1.00;;;;;;10205183;28;84617;-47
2022/05/18 23:55:55;;;;;;;;;;;21.10;1.00;;;;;;10245031;28;84971;-47
